CYVM/YVM METAR and TAF weather

Enter ICAO airport designator
Station Type Date Time Source
CYVM METAR 2021/05/12 21:00 UTC NOAA

CYVM 122100Z AUTO 04005KT 9SM CLR M02/M04 A2994 RMK SLP140


Station Type Date Time Source
CYVM Decoded METAR 2021/05/12 21:00 UTC NOAA

Broughton Island Airport, Canada (CYVM) 67-33N 064-02W
May 12, 2021 - 05:00 PM EDT / 2021.05.12 2100 UTC
Wind: from the NE (040 degrees) at 6 MPH (5 KT):0
Visibility: 9 mile(s):0
Sky conditions: clear
Temperature: 28 F (-2 C)
Windchill: 21 F (-6 C):1
Dew Point: 24 F (-4 C)
Relative Humidity: 86%
Pressure (altimeter): 29.94 in. Hg (1013 hPa)
ob: CYVM 122100Z AUTO 04005KT 9SM CLR M02/M04 A2994 RMK SLP140
cycle: 21

Station Type Date Time Source
CYVM TAF 2021/05/13 01:42 UTC NOAA

TAF CYVM 130038Z 1301/1313 FCST NOT AVBL DUE NO OBS
RMK FCST BASED ON AUTO OBS. NXT FCST BY 130700Z

Example: see airport list